createdAt,value
2018-09-08T00:00:55.170Z,15.27
2018-09-08T00:02:26.588Z,15.31
2018-09-08T00:03:58.168Z,15.25
2018-09-08T00:05:29.733Z,15.14
2018-09-08T00:07:01.447Z,15.19
2018-09-08T00:08:32.866Z,15.19
2018-09-08T00:10:04.437Z,15.10
2018-09-08T00:11:36.007Z,15.10
2018-09-08T00:13:07.778Z,15.13
2018-09-08T00:14:39.146Z,15.11
2018-09-08T00:16:10.724Z,15.11
2018-09-08T00:17:42.286Z,15.16
2018-09-08T00:19:13.956Z,15.07
2018-09-08T00:20:45.426Z,15.03
2018-09-08T00:22:16.996Z,15.03
2018-09-08T00:23:48.565Z,14.99
2018-09-08T00:25:20.235Z,14.98
2018-09-08T00:26:52.020Z,14.94
2018-09-08T00:28:23.276Z,14.95
2018-09-08T00:29:54.844Z,14.88
2018-09-08T00:31:26.816Z,14.80
2018-09-08T00:32:57.988Z,14.65
2018-09-08T00:34:29.556Z,14.70
2018-09-08T00:36:01.124Z,14.70
2018-09-08T00:37:32.845Z,14.68
2018-09-08T00:39:04.263Z,14.70
2018-09-08T00:40:35.833Z,14.72
2018-09-08T00:42:07.404Z,14.68
2018-09-08T00:43:39.073Z,14.64
2018-09-08T00:45:10.543Z,14.69
2018-09-08T00:46:42.112Z,14.65
2018-09-08T00:48:13.683Z,14.64
2018-09-08T00:49:45.451Z,14.65
2018-09-08T00:51:16.822Z,14.51
2018-09-08T00:52:48.393Z,14.50
2018-09-08T00:54:19.960Z,14.47
2018-09-08T00:55:51.630Z,14.54
2018-09-08T00:57:23.180Z,14.61
2018-09-08T00:58:54.674Z,14.52
2018-09-08T01:00:26.239Z,14.46
2018-09-08T01:01:58.077Z,14.52
2018-09-08T01:03:29.378Z,14.54
2018-09-08T01:05:00.948Z,14.51
2018-09-08T01:06:32.517Z,14.35
2018-09-08T01:08:04.287Z,14.27
2018-09-08T01:09:35.656Z,14.24
2018-09-08T01:11:07.229Z,14.15
2018-09-08T01:12:38.795Z,14.14
2018-09-08T01:14:10.464Z,14.10
2018-09-08T01:15:41.936Z,14.15
2018-09-08T01:17:13.503Z,14.14
2018-09-08T01:18:45.073Z,14.14
2018-09-08T01:20:16.742Z,14.09
2018-09-08T01:21:48.211Z,14.15
2018-09-08T01:23:19.781Z,14.14
2018-09-08T01:24:51.350Z,14.02
2018-09-08T01:26:23.120Z,14.12
2018-09-08T01:27:54.489Z,14.18
2018-09-08T01:29:26.059Z,14.07
2018-09-08T01:30:57.631Z,14.03
2018-09-08T01:32:29.447Z,14.12
2018-09-08T01:34:00.766Z,14.10
2018-09-08T01:35:32.336Z,14.20
2018-09-08T01:37:03.905Z,14.09
2018-09-08T01:38:35.574Z,13.99
2018-09-08T01:40:07.044Z,14.02
2018-09-08T01:41:38.612Z,13.89
2018-09-08T01:43:10.182Z,13.91
2018-09-08T01:44:41.951Z,13.84
2018-09-08T01:46:13.320Z,13.95
2018-09-08T01:47:44.889Z,13.84
2018-09-08T01:49:16.458Z,13.81
2018-09-08T01:50:48.128Z,13.84
2018-09-08T01:52:19.597Z,13.67
2018-09-08T01:53:51.166Z,13.69
2018-09-08T01:55:22.736Z,13.73
2018-09-08T01:56:54.404Z,13.67
2018-09-08T01:58:25.874Z,13.62
2018-09-08T01:59:57.443Z,13.64
2018-09-08T02:01:29.019Z,13.59
2018-09-08T02:03:00.932Z,13.59
2018-09-08T02:04:32.150Z,13.62
2018-09-08T02:06:03.719Z,13.48
2018-09-08T02:07:35.560Z,13.52
2018-09-08T02:09:07.865Z,13.51
2018-09-08T02:10:38.426Z,13.44
2018-09-08T02:12:09.994Z,13.41
2018-09-08T02:13:41.563Z,13.44
2018-09-08T02:15:13.236Z,13.33
2018-09-08T02:16:44.702Z,13.29
2018-09-08T02:18:16.271Z,13.39
2018-09-08T02:19:47.839Z,13.44
2018-09-08T02:21:19.609Z,13.48
2018-09-08T02:24:22.549Z,13.33
2018-09-08T02:25:54.116Z,13.39
2018-09-08T02:27:25.835Z,13.30
2018-09-08T02:28:57.260Z,13.26
2018-09-08T02:30:28.822Z,13.39
2018-09-08T02:32:00.391Z,13.32
2018-09-08T02:33:32.109Z,13.33
2018-09-08T02:35:03.528Z,13.29
2018-09-08T02:36:35.098Z,13.14
2018-09-08T02:38:06.920Z,13.11
2018-09-08T02:39:38.635Z,13.12
2018-09-08T02:41:09.810Z,13.12
2018-09-08T02:42:41.371Z,13.15
2018-09-08T02:44:12.946Z,13.10
2018-09-08T02:45:44.679Z,13.15
2018-09-08T02:47:16.078Z,13.07
2018-09-08T02:48:47.646Z,13.08
2018-09-08T02:50:19.215Z,13.10
2018-09-08T02:51:50.887Z,13.01
2018-09-08T02:53:22.354Z,13.03
2018-09-08T02:54:53.920Z,12.95
2018-09-08T02:56:25.489Z,12.86
2018-09-08T02:57:57.307Z,13.05
2018-09-08T02:59:28.626Z,13.22
2018-09-08T03:01:00.195Z,13.23
2018-09-08T03:02:31.765Z,13.11
2018-09-08T03:05:35.000Z,13.03
2018-09-08T03:07:06.468Z,12.95
2018-09-08T03:08:38.038Z,12.89
2018-09-08T03:10:09.605Z,12.86
2018-09-08T03:11:41.479Z,12.92
2018-09-08T03:13:12.742Z,12.90
2018-09-08T03:14:44.311Z,12.93
2018-09-08T03:16:15.879Z,12.86
2018-09-08T03:17:47.649Z,12.78
2018-09-08T03:19:19.016Z,12.89
2018-09-08T03:20:50.887Z,12.83
2018-09-08T03:22:22.152Z,12.90
2018-09-08T03:23:53.821Z,13.00
2018-09-08T03:25:25.289Z,12.95
2018-09-08T03:26:56.860Z,12.92
2018-09-08T03:28:28.427Z,12.87
2018-09-08T03:30:00.096Z,12.83
2018-09-08T03:31:31.564Z,12.77
2018-09-08T03:33:03.132Z,12.70
2018-09-08T03:34:34.700Z,12.62
2018-09-08T03:36:06.775Z,12.70
2018-09-08T03:37:37.836Z,12.64
2018-09-08T03:39:09.405Z,12.64
2018-09-08T03:40:40.974Z,12.65
2018-09-08T03:42:12.642Z,12.60
2018-09-08T03:43:44.110Z,12.59
2018-09-08T03:45:15.679Z,12.53
2018-09-08T03:46:47.248Z,12.49
2018-09-08T03:48:18.915Z,12.54
2018-09-08T03:49:50.382Z,12.49
2018-09-08T03:51:21.950Z,12.47
2018-09-08T03:52:53.824Z,12.56
2018-09-08T03:54:25.396Z,12.57
2018-09-08T03:55:56.656Z,12.57
2018-09-08T03:57:28.224Z,12.59
2018-09-08T03:58:59.823Z,12.56
2018-09-08T04:00:31.461Z,12.64
2018-09-08T04:02:02.929Z,12.56
2018-09-08T04:03:34.497Z,12.57
2018-09-08T04:05:06.066Z,12.45
2018-09-08T04:06:37.885Z,12.49
2018-09-08T04:08:09.202Z,12.49
2018-09-08T04:09:40.771Z,12.41
2018-09-08T04:11:12.344Z,12.45
2018-09-08T04:12:44.107Z,12.46
2018-09-08T04:14:15.474Z,12.41
2018-09-08T04:15:47.044Z,12.42
2018-09-08T04:17:18.614Z,12.45
2018-09-08T04:18:50.280Z,12.42
2018-09-08T04:20:21.751Z,12.47
2018-09-08T04:21:53.320Z,12.42
2018-09-08T04:23:24.894Z,12.57
2018-09-08T04:24:56.553Z,12.49
2018-09-08T04:26:28.020Z,12.47
2018-09-08T04:27:59.589Z,12.49
2018-09-08T04:29:31.210Z,12.47
2018-09-08T04:31:03.025Z,12.54
2018-09-08T04:32:34.293Z,12.50
2018-09-08T04:34:05.861Z,12.45
2018-09-08T04:35:37.429Z,12.41
2018-09-08T04:37:09.248Z,12.34
2018-09-08T04:38:40.567Z,12.34
2018-09-08T04:40:12.133Z,12.39
2018-09-08T04:41:43.702Z,12.32
2018-09-08T04:43:15.371Z,12.32
2018-09-08T04:44:46.838Z,12.39
2018-09-08T04:46:18.405Z,12.42
2018-09-08T04:47:49.974Z,12.47
2018-09-08T04:49:21.752Z,12.50
2018-09-08T04:52:24.678Z,12.70
2018-09-08T04:53:56.246Z,12.90
2018-09-08T04:55:27.814Z,12.71
2018-09-08T04:56:59.384Z,12.41
2018-09-08T04:58:30.950Z,12.34
2018-09-08T05:00:02.520Z,12.31
2018-09-08T05:01:34.186Z,12.24
2018-09-08T05:03:05.654Z,12.20
2018-09-08T05:04:37.222Z,12.20
2018-09-08T05:06:08.791Z,12.27
2018-09-08T05:07:40.861Z,12.13
2018-09-08T05:09:11.982Z,12.10
2018-09-08T05:10:43.494Z,12.09
2018-09-08T05:12:15.062Z,12.07
2018-09-08T05:13:46.930Z,12.02
2018-09-08T05:15:18.197Z,12.21
2018-09-08T05:16:49.768Z,12.21
2018-09-08T05:18:21.334Z,12.29
2018-09-08T05:19:52.901Z,12.27
2018-09-08T05:21:24.469Z,12.31
2018-09-08T05:22:56.036Z,12.28
2018-09-08T05:24:27.604Z,12.20
2018-09-08T05:25:59.272Z,12.19
2018-09-08T05:27:30.740Z,12.31
2018-09-08T05:29:02.308Z,12.20
2018-09-08T05:30:33.877Z,12.62
2018-09-08T05:32:05.545Z,13.10
2018-09-08T05:33:37.011Z,13.46
2018-09-08T05:35:08.662Z,13.67
2018-09-08T05:36:40.161Z,13.29
2018-09-08T05:38:11.865Z,13.04
2018-09-08T05:39:43.284Z,12.89
2018-09-08T05:41:14.851Z,12.65
2018-09-08T05:42:46.470Z,12.46
2018-09-08T05:44:18.388Z,12.57
2018-09-08T05:45:49.557Z,12.82
2018-09-08T05:47:21.124Z,12.71
2018-09-08T05:50:24.560Z,13.14
2018-09-08T05:51:55.827Z,13.22
2018-09-08T05:53:27.395Z,12.97
2018-09-08T05:54:58.962Z,12.97
2018-09-08T05:56:30.582Z,13.00
2018-09-08T05:58:02.099Z,13.07
2018-09-08T05:59:33.667Z,13.11
2018-09-08T06:01:05.773Z,13.12
2018-09-08T06:02:37.103Z,13.11
2018-09-08T06:04:08.371Z,13.03
2018-09-08T06:05:39.940Z,13.08
2018-09-08T06:07:11.509Z,13.11
2018-09-08T06:08:43.075Z,13.03
2018-09-08T06:10:14.732Z,13.07
2018-09-08T06:11:46.211Z,13.07
2018-09-08T06:13:17.778Z,13.04
2018-09-08T06:14:49.346Z,12.96
2018-09-08T06:16:20.914Z,12.90
2018-09-08T06:17:52.482Z,13.07
2018-09-08T06:19:24.050Z,13.11
2018-09-08T06:20:55.718Z,13.12
2018-09-08T06:22:27.186Z,13.08
2018-09-08T06:23:58.755Z,13.00
2018-09-08T06:25:30.351Z,13.03
2018-09-08T06:27:01.891Z,12.97
2018-09-08T06:28:33.523Z,13.00
2018-09-08T06:30:05.027Z,13.03
2018-09-08T06:31:36.594Z,13.04
2018-09-08T06:33:08.263Z,13.15
2018-09-08T06:34:39.734Z,13.04
2018-09-08T06:36:11.300Z,13.05
2018-09-08T06:37:42.869Z,13.07
2018-09-08T06:39:14.736Z,13.12
2018-09-08T06:40:46.005Z,13.04
2018-09-08T06:42:17.572Z,13.10
2018-09-08T06:43:49.143Z,13.12
2018-09-08T06:45:20.708Z,13.19
2018-09-08T06:48:23.845Z,13.19
2018-09-08T06:49:55.416Z,13.23
2018-09-08T06:51:26.982Z,13.32
2018-09-08T06:52:58.550Z,13.33
2018-09-08T06:54:30.119Z,13.39
2018-09-08T06:56:01.687Z,13.33
2018-09-08T06:57:33.355Z,13.32
2018-09-08T06:59:04.824Z,13.44
2018-09-08T07:00:36.392Z,13.49
2018-09-08T07:02:07.961Z,13.41
2018-09-08T07:03:39.780Z,13.44
2018-09-08T07:05:11.098Z,13.49
2018-09-08T07:06:42.667Z,13.46
2018-09-08T07:08:14.234Z,13.48
2018-09-08T07:09:45.803Z,13.49
2018-09-08T07:11:17.372Z,13.57
2018-09-08T07:12:48.940Z,13.57
2018-09-08T07:14:20.508Z,13.54
2018-09-08T07:15:52.277Z,13.51
2018-09-08T07:17:23.645Z,13.59
2018-09-08T07:20:26.783Z,13.51
2018-09-08T07:21:58.351Z,13.55
2018-09-08T07:23:29.920Z,13.60
2018-09-08T07:25:01.592Z,13.64
2018-09-08T07:26:33.057Z,13.62
2018-09-08T07:28:04.725Z,13.71
2018-09-08T07:29:36.193Z,13.73
2018-09-08T07:31:07.815Z,13.62
2018-09-08T07:32:39.331Z,13.64
2018-09-08T07:34:11.101Z,13.69
2018-09-08T07:35:42.674Z,13.70
2018-09-08T07:37:14.072Z,13.66
2018-09-08T07:38:45.608Z,13.67
2018-09-08T07:40:17.475Z,13.67
2018-09-08T07:41:48.742Z,13.62
2018-09-08T07:43:20.310Z,13.57
2018-09-08T07:44:51.879Z,13.60
2018-09-08T07:46:23.548Z,13.71
2018-09-08T07:47:55.019Z,13.66
2018-09-08T07:49:26.585Z,13.67
2018-09-08T07:50:58.157Z,13.63
2018-09-08T07:52:30.123Z,13.66
2018-09-08T07:54:01.323Z,13.63
2018-09-08T07:55:32.859Z,13.67
2018-09-08T07:57:04.427Z,13.70
2018-09-08T07:58:36.096Z,13.60
2018-09-08T08:00:07.565Z,13.69
2018-09-08T08:01:39.136Z,13.63
2018-09-08T08:03:10.702Z,13.67
2018-09-08T08:04:42.370Z,13.63
2018-09-08T08:06:13.838Z,13.57
2018-09-08T08:07:45.413Z,13.70
2018-09-08T08:09:16.978Z,13.64
2018-09-08T08:10:48.994Z,13.64
2018-09-08T08:12:20.111Z,13.66
2018-09-08T08:13:51.680Z,13.55
2018-09-08T08:15:23.248Z,13.51
2018-09-08T08:16:54.917Z,13.46
2018-09-08T08:18:26.388Z,13.55
2018-09-08T08:19:57.953Z,13.44
2018-09-08T08:21:29.521Z,13.49
2018-09-08T08:23:01.240Z,13.46
2018-09-08T08:24:32.658Z,13.48
2018-09-08T08:26:04.226Z,13.49
2018-09-08T08:27:35.796Z,13.55
2018-09-08T08:29:07.463Z,13.52
2018-09-08T08:30:38.931Z,13.51
2018-09-08T08:32:10.500Z,13.55
2018-09-08T08:33:42.068Z,13.45
2018-09-08T08:35:13.737Z,13.46
2018-09-08T08:36:45.205Z,13.51
2018-09-08T08:38:16.821Z,13.48
2018-09-08T08:39:48.342Z,13.51
2018-09-08T08:41:20.012Z,13.52
2018-09-08T08:42:51.479Z,13.48
2018-09-08T08:44:23.048Z,13.52
2018-09-08T08:45:54.620Z,13.44
2018-09-08T08:47:26.285Z,13.45
2018-09-08T08:48:57.755Z,13.49
2018-09-08T08:50:29.323Z,13.48
2018-09-08T08:52:00.891Z,13.55
2018-09-08T08:53:32.458Z,13.48
2018-09-08T08:55:04.027Z,13.41
2018-09-08T08:56:35.596Z,13.44
2018-09-08T08:58:07.169Z,13.52
2018-09-08T08:59:38.734Z,13.59
2018-09-08T09:01:10.302Z,13.54
2018-09-08T09:02:41.871Z,13.51
2018-09-08T09:04:13.439Z,13.52
2018-09-08T09:05:45.208Z,13.52
2018-09-08T09:07:16.958Z,13.54
2018-09-08T09:08:48.498Z,13.48
2018-09-08T09:10:19.713Z,13.48
2018-09-08T09:11:51.957Z,13.54
2018-09-08T09:13:22.924Z,13.62
2018-09-08T09:14:54.420Z,13.62
2018-09-08T09:16:25.988Z,13.66
2018-09-08T09:17:57.657Z,13.63
2018-09-08T09:19:29.126Z,13.67
2018-09-08T09:21:00.694Z,13.71
2018-09-08T09:22:32.263Z,13.67
2018-09-08T09:24:04.016Z,13.71
2018-09-08T09:25:35.704Z,13.69
2018-09-08T09:27:06.969Z,13.78
2018-09-08T09:28:38.539Z,13.79
2018-09-08T09:30:10.207Z,13.78
2018-09-08T09:34:44.813Z,13.91
2018-09-08T09:36:16.384Z,13.99
2018-09-08T09:37:47.951Z,14.00
2018-09-08T09:39:19.723Z,14.04
2018-09-08T09:42:22.859Z,14.17
2018-09-08T09:43:54.434Z,14.09
2018-09-08T09:45:25.797Z,14.10
2018-09-08T09:46:57.371Z,14.17
2018-09-08T09:48:29.542Z,14.29
2018-09-08T09:50:00.505Z,14.29
2018-09-08T09:51:32.619Z,14.40
2018-09-08T09:54:35.213Z,14.46
2018-09-08T09:57:38.352Z,14.65
2018-09-08T09:59:09.922Z,14.77
2018-09-08T10:02:13.216Z,15.44
2018-09-08T10:03:44.631Z,15.74
2018-09-08T10:05:16.202Z,15.93
2018-09-08T10:08:19.445Z,16.21
2018-09-08T10:09:51.420Z,16.17
2018-09-08T10:11:22.485Z,16.27
2018-09-08T10:12:54.055Z,16.20
2018-09-08T10:14:25.728Z,16.14
2018-09-08T10:15:57.198Z,16.83
2018-09-08T10:17:28.770Z,17.19
2018-09-08T10:19:00.343Z,16.58
2018-09-08T10:20:32.216Z,16.23
2018-09-08T10:22:03.486Z,16.35
2018-09-08T10:23:35.132Z,16.67
2018-09-08T10:25:06.832Z,17.58
2018-09-08T10:26:38.406Z,18.42
2018-09-08T10:28:09.775Z,18.98
2018-09-08T10:31:12.922Z,19.46
2018-09-08T10:32:44.496Z,19.55
2018-09-08T10:34:16.070Z,19.98
2018-09-08T10:37:19.222Z,19.80
2018-09-08T10:38:51.498Z,19.55
2018-09-08T10:40:22.405Z,18.21
2018-09-08T10:41:54.249Z,17.22
2018-09-08T10:43:25.521Z,17.19
2018-09-08T10:46:29.310Z,17.21
2018-09-08T10:48:00.246Z,15.94
2018-09-08T10:52:35.715Z,16.05
2018-09-08T10:54:06.548Z,15.53
2018-09-08T10:55:38.119Z,15.19
2018-09-08T10:57:09.693Z,15.14
2018-09-08T10:58:42.055Z,15.35
2018-09-08T11:00:12.842Z,15.50
2018-09-08T11:03:15.988Z,15.64
2018-09-08T11:09:22.917Z,15.46
2018-09-08T11:10:53.852Z,15.51
2018-09-08T11:13:57.202Z,15.41
2018-09-08T11:15:28.826Z,15.41
2018-09-08T11:20:03.490Z,15.89
2018-09-08T11:21:35.013Z,16.04
2018-09-08T11:23:06.434Z,15.67
2018-09-08T11:26:09.883Z,16.11
2018-09-08T11:27:41.959Z,16.28
2018-09-08T11:30:44.649Z,16.15
2018-09-08T11:32:15.870Z,15.94
2018-09-08T11:33:47.543Z,15.80
2018-09-08T11:36:50.600Z,16.43
2018-09-08T11:38:22.415Z,16.57
2018-09-08T11:41:27.668Z,16.61
2018-09-08T11:42:56.883Z,17.00
2018-09-08T11:44:28.459Z,17.46
2018-09-08T11:46:00.031Z,16.68
2018-09-08T11:49:03.581Z,16.39
2018-09-08T11:50:35.294Z,16.34
2018-09-08T11:52:06.329Z,16.53
2018-09-08T11:53:38.107Z,16.50
2018-09-08T11:55:09.479Z,16.60
2018-09-08T11:56:41.663Z,16.58
2018-09-08T11:58:12.830Z,16.96
2018-09-08T11:59:44.751Z,16.78
2018-09-08T12:01:15.779Z,17.30
2018-09-08T12:02:47.357Z,17.51
2018-09-08T12:04:18.928Z,17.46
2018-09-08T12:05:50.503Z,17.70
2018-09-08T12:07:22.179Z,17.33
2018-09-08T12:08:54.193Z,18.26
2018-09-08T12:10:25.435Z,17.96
2018-09-08T12:11:56.808Z,18.18
2018-09-08T12:13:28.925Z,19.10
2018-09-08T12:16:31.743Z,19.50
2018-09-08T12:18:03.117Z,20.38
2018-09-08T12:21:06.376Z,20.36
2018-09-08T12:22:37.853Z,20.58
2018-09-08T12:24:09.433Z,18.81
2018-09-08T12:25:41.752Z,19.26
2018-09-08T12:27:12.793Z,20.06
2018-09-08T12:31:47.542Z,20.01
2018-09-08T12:33:19.519Z,21.06
2018-09-08T12:34:50.494Z,20.94
2018-09-08T12:36:22.277Z,18.78
2018-09-08T12:37:54.162Z,18.84
2018-09-08T12:39:25.262Z,18.80
2018-09-08T12:40:57.020Z,19.80
2018-09-08T12:42:28.936Z,20.39
2018-09-08T12:44:00.180Z,18.84
2018-09-08T12:45:32.299Z,18.47
2018-09-08T12:47:03.140Z,18.72
2018-09-08T12:50:06.302Z,19.63
2018-09-08T12:51:38.924Z,20.99
2018-09-08T12:53:09.768Z,21.47
2018-09-08T12:56:12.636Z,21.07
2018-09-08T12:57:44.308Z,20.62
2018-09-08T12:59:16.140Z,21.38
2018-09-08T13:02:18.958Z,20.16
2018-09-08T13:03:51.040Z,18.84
2018-09-08T13:05:22.318Z,19.54
2018-09-08T13:06:53.903Z,19.51
2018-09-08T13:08:25.820Z,20.38
2018-09-08T13:09:57.166Z,19.54
2018-09-08T13:13:00.563Z,19.84
2018-09-08T13:14:31.608Z,19.69
2018-09-08T13:16:03.595Z,21.40
2018-09-08T13:19:06.557Z,21.40
2018-09-08T13:22:09.918Z,22.25
2018-09-08T13:23:41.405Z,20.13
2018-09-08T13:25:12.886Z,20.61
2018-09-08T13:26:44.266Z,20.58
2018-09-08T13:28:15.948Z,20.28
2018-09-08T13:29:48.039Z,21.46
2018-09-08T13:32:50.899Z,20.69
2018-09-08T13:35:53.862Z,20.62
2018-09-08T13:37:25.367Z,21.01
2018-09-08T13:38:56.928Z,19.99
2018-09-08T13:40:28.510Z,21.35
2018-09-08T13:42:00.343Z,22.82
2018-09-08T13:43:31.675Z,22.58
2018-09-08T13:46:34.843Z,21.90
2018-09-08T13:48:06.524Z,22.61
2018-09-08T13:49:38.012Z,23.47
2018-09-08T13:51:09.592Z,24.60
2018-09-08T13:55:44.343Z,22.35
2018-09-08T13:57:15.925Z,21.37
2018-09-08T13:58:47.509Z,21.28
2018-09-08T14:00:19.397Z,22.28
2018-09-08T14:01:50.830Z,22.75
2018-09-08T14:03:22.564Z,23.15
2018-09-08T14:04:54.046Z,21.82
2018-09-08T14:06:25.427Z,22.45
2018-09-08T14:07:57.161Z,23.15
2018-09-08T14:09:28.608Z,22.14
2018-09-08T14:11:00.178Z,21.25
2018-09-08T14:12:31.762Z,22.14
2018-09-08T14:14:03.445Z,22.51
2018-09-08T14:15:34.940Z,22.30
2018-09-08T14:17:06.514Z,22.36
2018-09-08T14:20:09.880Z,23.91
2018-09-08T14:21:41.465Z,22.20
2018-09-08T14:23:12.847Z,22.03
2018-09-08T14:24:45.373Z,22.35
2018-09-08T14:29:19.484Z,24.06
2018-09-08T14:30:50.764Z,22.97
2018-09-08T14:32:22.353Z,23.38
2018-09-08T14:35:25.719Z,22.68
2018-09-08T14:36:57.105Z,23.15
2018-09-08T14:38:28.886Z,23.33
2018-09-08T14:40:00.267Z,23.25
2018-09-08T14:41:31.954Z,22.98
2018-09-08T14:43:03.640Z,24.46
2018-09-08T14:47:38.395Z,23.46
2018-09-08T14:49:09.772Z,24.40
2018-09-08T14:50:41.362Z,24.40
2018-09-08T14:53:45.128Z,24.80
2018-09-08T14:55:16.111Z,25.32
2018-09-08T14:58:19.280Z,24.81
2018-09-08T14:59:51.166Z,25.75
2018-09-08T15:01:22.993Z,25.64
2018-09-08T15:04:25.621Z,26.48
2018-09-08T15:05:57.306Z,27.22
2018-09-08T15:07:28.792Z,26.97
2018-09-08T15:09:00.381Z,25.60
2018-09-08T15:10:31.964Z,25.02
2018-09-08T15:12:03.801Z,24.78
2018-09-08T15:16:38.611Z,26.01
2018-09-08T15:21:13.502Z,24.99
2018-09-08T15:22:45.199Z,25.55
2018-09-08T15:24:16.238Z,26.09
2018-09-08T15:25:47.823Z,27.21
2018-09-08T15:27:19.659Z,27.65
2018-09-08T15:28:51.298Z,26.97
2018-09-08T15:30:22.580Z,26.48
2018-09-08T15:31:54.166Z,26.43
2018-09-08T15:33:25.911Z,26.54
2018-09-08T15:34:57.374Z,26.35
2018-09-08T15:36:28.927Z,26.09
2018-09-08T15:38:00.513Z,26.33
2018-09-08T15:39:32.200Z,25.91
2018-09-08T15:41:03.685Z,25.98
2018-09-08T15:42:35.271Z,26.13
2018-09-08T15:44:06.858Z,27.21
2018-09-08T15:47:10.231Z,27.59
2018-09-08T15:48:41.617Z,28.43
2018-09-08T15:50:13.203Z,27.97
2018-09-08T15:54:48.602Z,28.25
2018-09-08T15:57:51.141Z,28.49
2018-09-08T16:00:54.917Z,26.91
2018-09-08T16:02:25.899Z,28.29
2018-09-08T16:05:29.073Z,28.98
2018-09-08T16:08:32.756Z,29.06
2018-09-08T16:10:03.835Z,29.55
2018-09-08T16:13:07.313Z,29.90
2018-09-08T16:14:38.699Z,29.42
2018-09-08T16:16:10.187Z,29.55
2018-09-08T16:17:42.282Z,30.20
2018-09-08T16:19:13.363Z,29.57
2018-09-08T16:20:45.994Z,29.26
2018-09-08T16:22:16.541Z,29.67
2018-09-08T16:23:48.129Z,28.03
2018-09-08T16:25:19.718Z,27.07
2018-09-08T16:29:55.187Z,28.09
2018-09-08T16:40:35.999Z,29.41
2018-09-08T16:43:38.770Z,29.31
2018-09-08T16:45:10.358Z,29.58
2018-09-08T16:46:42.146Z,29.55
2018-09-08T16:48:13.532Z,29.80
2018-09-08T16:52:48.394Z,28.29
2018-09-08T16:54:20.418Z,28.34
2018-09-08T16:55:51.467Z,28.15
2018-09-08T16:57:23.057Z,27.79
2018-09-08T16:58:54.741Z,28.15
2018-09-08T17:00:26.239Z,27.70
2018-09-08T17:03:29.404Z,29.04
2018-09-08T17:05:01.211Z,29.02
2018-09-08T17:06:32.573Z,28.17
2018-09-08T17:08:04.363Z,27.79
2018-09-08T17:11:07.736Z,27.19
2018-09-08T17:14:10.504Z,28.02
2018-09-08T17:15:42.293Z,27.18
2018-09-08T17:17:14.316Z,27.10
2018-09-08T17:21:48.434Z,27.51
2018-09-08T17:23:20.218Z,26.44
2018-09-08T17:24:52.210Z,26.57
2018-09-08T17:27:54.774Z,27.21
2018-09-08T17:29:26.460Z,27.97
2018-09-08T17:30:57.945Z,28.02
2018-09-08T17:32:29.529Z,27.25
2018-09-08T17:35:33.001Z,27.04
2018-09-08T17:37:04.285Z,25.94
2018-09-08T17:38:36.173Z,26.09
2018-09-08T17:40:07.458Z,26.92
2018-09-08T17:41:39.241Z,26.97
2018-09-08T17:43:10.623Z,27.77
2018-09-08T17:44:42.412Z,27.17
2018-09-08T17:46:14.095Z,26.13
2018-09-08T17:47:46.014Z,25.94
2018-09-08T17:49:16.961Z,25.98
2018-09-08T17:50:48.850Z,25.90
2018-09-08T17:52:20.131Z,26.18
2018-09-08T17:53:52.757Z,25.46
2018-09-08T17:55:23.836Z,25.00
2018-09-08T17:56:54.882Z,26.06
2018-09-08T17:58:26.497Z,25.94
2018-09-08T18:01:29.985Z,26.73
2018-09-08T18:03:01.219Z,26.51
2018-09-08T18:06:04.385Z,26.12
2018-09-08T18:07:36.474Z,25.91
2018-09-08T18:09:07.553Z,24.96
2018-09-08T18:12:10.723Z,24.32
2018-09-08T18:13:42.420Z,24.15
2018-09-08T18:15:14.089Z,24.37
2018-09-08T18:16:45.676Z,24.25
2018-09-08T18:18:17.053Z,24.62
2018-09-08T18:19:48.837Z,24.15
2018-09-08T18:22:51.802Z,24.35
2018-09-08T18:24:23.385Z,22.90
2018-09-08T18:27:26.952Z,23.22
2018-09-08T18:28:58.138Z,23.75
2018-09-08T18:30:29.918Z,24.34
2018-09-08T18:32:01.500Z,24.12
2018-09-08T18:33:32.980Z,24.45
2018-09-08T18:35:04.766Z,24.98
2018-09-08T18:38:07.627Z,24.68
2018-09-08T18:39:39.409Z,25.18
2018-09-08T18:44:13.958Z,22.79
2018-09-08T18:45:45.639Z,22.77
2018-09-08T18:48:48.701Z,23.46
2018-09-08T18:50:20.286Z,24.28
2018-09-08T18:51:52.502Z,24.53
2018-09-08T18:53:23.751Z,24.58
2018-09-08T18:54:55.229Z,22.25
2018-09-08T18:56:26.608Z,22.58
2018-09-08T19:01:01.753Z,22.24
2018-09-08T19:02:32.932Z,22.35
2018-09-08T19:04:04.515Z,22.07
2018-09-08T19:05:36.093Z,21.83
2018-09-08T19:07:07.973Z,22.51
2018-09-08T19:08:39.557Z,22.79
2018-09-08T19:10:10.833Z,23.13
2018-09-08T19:11:42.412Z,22.57
2018-09-08T19:13:14.292Z,22.60
2018-09-08T19:16:17.155Z,22.64
2018-09-08T19:19:20.510Z,22.05
2018-09-08T19:20:51.889Z,22.47
2018-09-08T19:22:23.469Z,23.31
2018-09-08T19:23:55.048Z,23.19
2018-09-08T19:25:26.931Z,22.35
2018-09-08T19:26:58.746Z,22.12
2018-09-08T19:30:01.368Z,21.67
2018-09-08T19:33:04.824Z,22.03
2018-09-08T19:34:36.100Z,21.54
2018-09-08T19:36:07.982Z,20.42
2018-09-08T19:37:39.256Z,21.22
2018-09-08T19:40:43.016Z,20.72
2018-09-08T19:42:13.990Z,19.77
2018-09-08T19:43:45.771Z,19.61
2018-09-08T19:45:17.149Z,18.90
2018-09-08T19:46:49.364Z,18.85
2018-09-08T19:48:20.300Z,18.99
2018-09-08T19:49:51.876Z,19.04
2018-09-08T19:51:23.453Z,18.70
2018-09-08T19:52:55.433Z,18.21
2018-09-08T19:54:26.603Z,18.17
2018-09-08T19:55:58.382Z,18.20
2018-09-08T19:57:29.754Z,17.97
2018-09-08T20:00:33.262Z,18.11
2018-09-08T20:02:05.030Z,18.08
2018-09-08T20:03:36.255Z,18.10
2018-09-08T20:05:07.631Z,17.89
2018-09-08T20:08:11.416Z,18.17
2018-09-08T20:09:42.382Z,18.12
2018-09-08T20:11:13.925Z,18.32
2018-09-08T20:14:17.371Z,18.36
2018-09-08T20:15:48.642Z,18.50
2018-09-08T20:17:20.215Z,18.48
2018-09-08T20:18:51.789Z,18.26
2018-09-08T20:20:23.563Z,18.05
2018-09-08T20:21:54.936Z,17.96
2018-09-08T20:23:27.048Z,17.86
2018-09-08T20:26:29.790Z,17.48
2018-09-08T20:28:01.227Z,17.58
2018-09-08T20:31:04.373Z,17.49
2018-09-08T20:32:36.045Z,17.62
2018-09-08T20:34:07.518Z,17.56
2018-09-08T20:37:10.665Z,17.36
2018-09-08T20:38:42.435Z,17.38
2018-09-08T20:40:13.809Z,17.21
2018-09-08T20:41:45.380Z,16.98
2018-09-08T20:43:16.950Z,17.01
2018-09-08T20:44:48.623Z,17.16
2018-09-08T20:46:20.094Z,17.19
2018-09-08T20:47:51.673Z,17.08
2018-09-08T20:49:23.241Z,17.07
2018-09-08T20:52:27.018Z,17.03
2018-09-08T20:53:57.957Z,17.01
2018-09-08T20:55:29.523Z,17.16
2018-09-08T20:57:01.095Z,17.16
2018-09-08T20:58:32.870Z,17.18
2018-09-08T21:00:04.239Z,17.18
2018-09-08T21:01:35.809Z,17.22
2018-09-08T21:03:07.380Z,17.16
2018-09-08T21:04:39.052Z,17.16
2018-09-08T21:06:10.524Z,17.22
2018-09-08T21:07:42.123Z,17.15
2018-09-08T21:09:13.666Z,17.21
2018-09-08T21:10:45.538Z,17.19
2018-09-08T21:12:17.112Z,17.03
2018-09-08T21:13:48.380Z,17.11
2018-09-08T21:15:19.952Z,16.97
2018-09-08T21:16:52.374Z,17.00
2018-09-08T21:18:23.297Z,17.08
2018-09-08T21:19:54.666Z,17.19
2018-09-08T21:21:26.238Z,17.04
2018-09-08T21:22:57.909Z,16.91
2018-09-08T21:24:29.381Z,17.01
2018-09-08T21:27:32.620Z,17.04
2018-09-08T21:29:04.195Z,17.08
2018-09-08T21:30:35.667Z,17.08
2018-09-08T21:32:07.241Z,17.03
2018-09-08T21:35:10.583Z,16.82
2018-09-08T21:36:41.952Z,16.85
2018-09-08T21:38:13.523Z,16.83
2018-09-08T21:39:45.094Z,16.78
2018-09-08T21:41:16.769Z,16.81
2018-09-08T21:42:48.236Z,16.83
2018-09-08T21:44:19.807Z,16.79
2018-09-08T21:45:51.381Z,16.78
2018-09-08T21:47:23.250Z,16.78
2018-09-08T21:50:26.093Z,16.73
2018-09-08T21:51:57.663Z,16.81
2018-09-08T21:53:29.635Z,16.81
2018-09-08T21:55:00.806Z,16.71
2018-09-08T21:56:32.378Z,16.67
2018-09-08T21:58:03.948Z,16.75
2018-09-08T21:59:35.619Z,16.83
2018-09-08T22:01:07.139Z,16.93
2018-09-08T22:02:38.863Z,16.82
2018-09-08T22:04:10.232Z,16.79
2018-09-08T22:05:42.411Z,16.85
2018-09-08T22:07:13.375Z,16.75
2018-09-08T22:08:44.946Z,16.66
2018-09-08T22:10:16.516Z,16.66
2018-09-08T22:11:48.489Z,16.57
2018-09-08T22:13:19.659Z,16.49
2018-09-08T22:14:51.533Z,16.49
2018-09-08T22:16:22.800Z,16.53
2018-09-08T22:17:54.672Z,16.48
2018-09-08T22:19:25.944Z,16.53
2018-09-08T22:20:57.514Z,16.56
2018-09-08T22:22:29.084Z,16.52
2018-09-08T22:24:00.755Z,16.53
2018-09-08T22:25:32.227Z,16.57
2018-09-08T22:27:03.799Z,16.60